Terminal Aerodrome Forecast
Issued by NWS Wilmington, OH

Current Version | Previous Version | Graphics & Text | Print | Product List | Glossary On
Versions: 1 2 3 4 5 6 7 8 9 10 11 12 13 14 15 16 17 18 19 20 21 22 23 24
000
FTUS41 KILN 021404 AAA
TAFILN
TAF AMD
KILN 021404Z 0214/0312 27012KT P6SM OVC025
      TEMPO 0214/0216 OVC018
     FM021700 27012G18KT P6SM OVC035
      TEMPO 0217/0218 OVC025
     FM022300 29008KT P6SM BKN035=

USA.gov is the U.S. government's official web portal to all federal, state and local government web resources and services.